Time;durP1;ratioP1;P1;durP2;ratioP2;P2;SDS_P1;SDS_P2;PMS_P1;PMS_P2;Temp;Humidity;BMP_temperature;BMP_pressure;BME280_temperature;BME280_humidity;BME280_pressure;Samples;Min_cycle;Max_cycle;Signal;HPM_P1;HPM_P2
2023/10/27 00:01:14;;;;;;;10.97;2.90;;;6.70;99.90;;;;;;5118138;27;20231;-84
2023/10/27 00:03:41;;;;;;;23.80;3.70;;;6.70;99.90;;;;;;5111115;28;20300;-83
2023/10/27 00:06:09;;;;;;;6.63;2.90;;;6.80;99.90;;;;;;5126685;27;20201;-82
2023/10/27 00:08:36;;;;;;;11.40;3.27;;;6.70;99.90;;;;;;5118167;27;20867;-83
2023/10/27 00:11:05;;;;;;;10.03;3.20;;;6.70;99.90;;;;;;5120234;27;20217;-85
2023/10/27 00:13:31;;;;;;;10.47;3.20;;;6.60;99.90;;;;;;5129221;27;20253;-82
2023/10/27 00:15:58;;;;;;;9.77;2.80;;;6.70;99.90;;;;;;5122298;27;20196;-85
2023/10/27 00:18:25;;;;;;;7.90;2.77;;;6.60;99.90;;;;;;5114733;27;20311;-85
2023/10/27 00:20:52;;;;;;;3.33;2.83;;;6.50;99.90;;;;;;5105735;28;20233;-84
2023/10/27 00:23:22;;;;;;;8.03;2.83;;;6.60;99.90;;;;;;5130555;27;20215;-85
2023/10/27 00:25:49;;;;;;;5.83;2.80;;;6.70;99.90;;;;;;5119621;27;20192;-84
2023/10/27 00:28:15;;;;;;;11.17;3.20;;;6.60;99.90;;;;;;5123106;27;20283;-83
2023/10/27 00:30:42;;;;;;;19.13;3.40;;;6.60;99.90;;;;;;5123846;27;20228;-83
2023/10/27 00:33:09;;;;;;;20.40;3.83;;;6.50;99.90;;;;;;5117012;28;20193;-85
2023/10/27 00:35:36;;;;;;;6.63;2.73;;;6.50;99.90;;;;;;5131535;27;20660;-84
2023/10/27 00:38:03;;;;;;;8.70;2.93;;;6.50;99.90;;;;;;5121279;27;20197;-84
2023/10/27 00:40:31;;;;;;;10.77;3.20;;;6.60;99.90;;;;;;5113663;28;20204;-84
2023/10/27 00:42:58;;;;;;;12.17;3.10;;;6.50;99.90;;;;;;5107061;28;20266;-83
2023/10/27 00:45:25;;;;;;;11.37;3.30;;;6.70;99.90;;;;;;5110555;27;20197;-85
2023/10/27 00:47:52;;;;;;;11.23;3.20;;;6.50;99.90;;;;;;5119585;27;20575;-84
2023/10/27 00:50:19;;;;;;;14.40;3.63;;;6.70;99.90;;;;;;5115005;27;20205;-86
2023/10/27 00:52:46;;;;;;;21.40;3.70;;;6.70;99.90;;;;;;5112296;28;20200;-84
2023/10/27 00:55:14;;;;;;;23.60;3.87;;;6.70;99.90;;;;;;5118743;28;20219;-83
2023/10/27 00:57:43;;;;;;;25.13;4.20;;;6.80;99.90;;;;;;5108144;28;20292;-85
2023/10/27 01:00:10;;;;;;;50.37;5.30;;;6.80;99.90;;;;;;5120449;27;20308;-84
2023/10/27 01:02:37;;;;;;;12.93;4.00;;;6.80;99.90;;;;;;5114151;27;20217;-83
2023/10/27 01:05:04;;;;;;;8.33;3.33;;;6.80;99.90;;;;;;5118426;28;20284;-83
2023/10/27 01:07:31;;;;;;;6.13;3.70;;;6.90;99.90;;;;;;5117005;27;20196;-82
2023/10/27 01:09:58;;;;;;;14.97;4.30;;;7.10;99.90;;;;;;5117953;28;20209;-84
2023/10/27 01:12:25;;;;;;;20.60;3.87;;;7.10;99.90;;;;;;5117611;28;20221;-83
2023/10/27 01:14:53;;;;;;;33.10;4.50;;;6.90;99.90;;;;;;5119678;27;20292;-84
2023/10/27 01:17:20;;;;;;;13.90;3.17;;;6.90;99.90;;;;;;5124099;27;20231;-84
2023/10/27 01:19:47;;;;;;;13.43;3.70;;;7.00;99.90;;;;;;5125427;27;20317;-85
2023/10/27 01:22:15;;;;;;;9.27;3.83;;;7.10;99.90;;;;;;5117946;28;20231;-84
2023/10/27 01:24:43;;;;;;;8.60;3.60;;;7.10;99.90;;;;;;5110097;28;20244;-85
2023/10/27 01:27:10;;;;;;;10.17;3.10;;;7.10;99.90;;;;;;5118603;27;20641;-84
2023/10/27 01:29:37;;;;;;;5.03;2.80;;;6.90;99.90;;;;;;5118053;28;20195;-83
2023/10/27 01:32:04;;;;;;;10.03;3.20;;;6.90;99.90;;;;;;5136073;27;20218;-84
2023/10/27 01:34:31;;;;;;;8.73;3.37;;;6.90;99.90;;;;;;5118261;28;20276;-85
2023/10/27 01:36:58;;;;;;;16.50;3.47;;;6.90;99.90;;;;;;5109731;27;20200;-84
2023/10/27 01:39:24;;;;;;;8.00;3.50;;;6.90;99.90;;;;;;5119327;27;20216;-85
2023/10/27 01:41:52;;;;;;;18.00;3.50;;;6.90;99.90;;;;;;5117916;28;20228;-85
2023/10/27 01:44:19;;;;;;;9.97;3.80;;;6.90;99.90;;;;;;5119577;27;20209;-83
2023/10/27 01:46:46;;;;;;;11.10;3.33;;;6.90;99.90;;;;;;5119392;27;20572;-84
2023/10/27 01:49:13;;;;;;;21.50;3.50;;;7.00;99.90;;;;;;5126655;27;20570;-84
2023/10/27 01:51:40;;;;;;;13.90;3.23;;;6.90;99.90;;;;;;5117639;28;20232;-84
2023/10/27 01:54:07;;;;;;;35.80;5.13;;;7.10;99.90;;;;;;5125486;27;20197;-86
2023/10/27 01:56:34;;;;;;;19.30;3.97;;;6.90;99.90;;;;;;5118517;28;20197;-84
2023/10/27 01:59:02;;;;;;;27.43;4.87;;;7.00;99.90;;;;;;5117600;27;20223;-84
2023/10/27 02:01:29;;;;;;;18.30;4.30;;;7.00;99.90;;;;;;5111148;28;20217;-84
2023/10/27 02:03:56;;;;;;;22.50;4.97;;;7.10;99.90;;;;;;5118389;28;20209;-85
2023/10/27 02:06:24;;;;;;;35.97;5.07;;;7.20;99.90;;;;;;5130151;27;20580;-84
2023/10/27 02:08:51;;;;;;;91.60;8.10;;;7.10;99.90;;;;;;5135800;27;20215;-84
2023/10/27 02:11:18;;;;;;;138.83;11.93;;;7.10;99.90;;;;;;5124299;27;20221;-84
2023/10/27 02:13:45;;;;;;;18.00;5.53;;;6.90;99.90;;;;;;5106030;28;20792;-83
2023/10/27 02:16:13;;;;;;;27.27;5.47;;;7.10;99.90;;;;;;5117952;27;20205;-83
2023/10/27 02:18:40;;;;;;;31.87;6.27;;;7.20;99.90;;;;;;5095640;28;20202;-83
2023/10/27 02:21:06;;;;;;;20.77;6.13;;;7.10;99.90;;;;;;5106099;28;20217;-83
2023/10/27 02:23:34;;;;;;;25.37;6.43;;;7.20;99.90;;;;;;5114464;27;20205;-84
2023/10/27 02:26:00;;;;;;;33.40;7.10;;;7.30;99.90;;;;;;5116251;27;20213;-83
2023/10/27 02:28:27;;;;;;;30.63;6.63;;;7.30;99.90;;;;;;5116281;28;20197;-83
2023/10/27 02:30:54;;;;;;;45.63;7.80;;;7.20;99.90;;;;;;5119559;27;20208;-85
2023/10/27 02:33:22;;;;;;;24.27;6.30;;;7.00;99.90;;;;;;5116137;28;20565;-84
2023/10/27 02:35:49;;;;;;;19.53;6.23;;;7.10;99.90;;;;;;5114821;28;20201;-85
2023/10/27 02:38:15;;;;;;;21.97;6.10;;;7.00;99.90;;;;;;5115550;28;20201;-83
2023/10/27 02:40:42;;;;;;;40.47;7.20;;;7.10;99.90;;;;;;5115237;28;20313;-83
2023/10/27 02:43:11;;;;;;;29.37;6.77;;;6.90;99.90;;;;;;5115421;28;20189;-84
2023/10/27 02:45:37;;;;;;;49.13;7.67;;;6.90;99.90;;;;;;5116014;28;20208;-84
2023/10/27 02:48:05;;;;;;;38.70;7.23;;;6.80;99.90;;;;;;5107203;28;20289;-83
2023/10/27 02:50:33;;;;;;;20.87;6.53;;;6.90;99.90;;;;;;5120011;28;20200;-83
2023/10/27 02:53:00;;;;;;;16.03;5.50;;;6.90;99.90;;;;;;5112297;27;20201;-84
2023/10/27 02:55:26;;;;;;;15.10;5.93;;;6.90;99.90;;;;;;5114986;28;20203;-84
2023/10/27 02:57:53;;;;;;;20.10;6.23;;;7.00;99.90;;;;;;5117775;28;20201;-83
2023/10/27 03:00:20;;;;;;;10.97;5.90;;;6.90;99.90;;;;;;5108699;28;20713;-84
2023/10/27 03:02:48;;;;;;;14.93;5.80;;;6.90;99.90;;;;;;5105497;28;20208;-83
2023/10/27 03:05:14;;;;;;;11.37;5.67;;;6.90;99.90;;;;;;5118661;28;20211;-83
2023/10/27 03:07:43;;;;;;;13.63;5.83;;;6.80;99.90;;;;;;5114098;27;20208;-85
2023/10/27 03:10:10;;;;;;;15.27;5.57;;;6.90;99.90;;;;;;5119468;27;20196;-84
2023/10/27 03:12:37;;;;;;;13.00;6.17;;;6.90;99.90;;;;;;5127989;27;20227;-84
2023/10/27 03:15:04;;;;;;;15.00;6.00;;;6.90;99.90;;;;;;5121496;27;20224;-84
2023/10/27 03:17:31;;;;;;;14.50;5.83;;;6.80;99.90;;;;;;5115121;28;20208;-84
2023/10/27 03:20:00;;;;;;;16.67;6.50;;;7.00;99.90;;;;;;5100402;28;20225;-84
2023/10/27 03:22:27;;;;;;;14.83;6.20;;;6.80;99.90;;;;;;5127447;27;20213;-84
2023/10/27 03:24:56;;;;;;;24.63;6.60;;;6.90;99.90;;;;;;5120816;27;20201;-85
2023/10/27 03:27:24;;;;;;;13.23;6.17;;;6.80;99.90;;;;;;5120483;28;20212;-85
2023/10/27 03:29:51;;;;;;;22.07;6.43;;;6.80;99.90;;;;;;5119997;28;20204;-84
2023/10/27 03:32:18;;;;;;;19.60;6.50;;;6.70;99.90;;;;;;5119731;28;20220;-83
2023/10/27 03:34:45;;;;;;;30.07;6.90;;;6.70;99.90;;;;;;5120149;28;20196;-82
2023/10/27 03:37:12;;;;;;;20.40;6.27;;;6.70;99.90;;;;;;5119485;28;20223;-83
2023/10/27 03:39:39;;;;;;;17.43;6.40;;;6.70;99.90;;;;;;5120092;28;20217;-84
2023/10/27 03:42:08;;;;;;;16.27;6.47;;;6.90;99.90;;;;;;5119436;28;20220;-84
2023/10/27 03:44:35;;;;;;;33.10;6.57;;;6.90;99.90;;;;;;5119647;28;20205;-84
2023/10/27 03:47:06;;;;;;;17.90;7.20;;;6.80;99.90;;;;;;5120139;28;20228;-84
2023/10/27 03:49:33;;;;;;;23.87;6.70;;;6.90;99.90;;;;;;5121468;28;20313;-82
2023/10/27 03:52:00;;;;;;;27.27;6.37;;;6.90;99.90;;;;;;5105025;28;20230;-84
2023/10/27 03:54:27;;;;;;;18.73;6.23;;;6.80;99.90;;;;;;5115449;28;20193;-82
2023/10/27 03:56:53;;;;;;;38.87;6.83;;;6.90;99.90;;;;;;5107748;28;20212;-84
2023/10/27 03:59:22;;;;;;;33.87;7.20;;;6.80;99.90;;;;;;5119295;27;20189;-83
2023/10/27 04:01:50;;;;;;;47.00;7.87;;;6.70;99.90;;;;;;5119126;28;20743;-83
2023/10/27 04:04:17;;;;;;;22.70;6.43;;;6.80;99.90;;;;;;5118813;28;20193;-82
2023/10/27 04:06:43;;;;;;;18.10;6.00;;;6.90;99.90;;;;;;5118996;27;20604;-82
2023/10/27 04:09:10;;;;;;;20.03;6.50;;;6.90;99.90;;;;;;5117291;28;20207;-84
2023/10/27 04:11:37;;;;;;;18.50;6.33;;;6.80;99.90;;;;;;5099115;28;20576;-83
2023/10/27 04:14:05;;;;;;;31.67;7.47;;;6.80;99.90;;;;;;5116193;28;20234;-83
2023/10/27 04:16:34;;;;;;;22.80;6.10;;;6.90;99.90;;;;;;5119274;28;20227;-84
2023/10/27 04:19:01;;;;;;;18.80;5.83;;;6.90;99.90;;;;;;5119875;28;20661;-84
2023/10/27 04:21:28;;;;;;;23.13;5.07;;;6.80;99.90;;;;;;5119098;28;20213;-84
2023/10/27 04:23:56;;;;;;;10.63;4.70;;;6.70;99.90;;;;;;5119000;28;20213;-84
2023/10/27 04:26:23;;;;;;;12.87;5.20;;;6.60;99.90;;;;;;5118272;28;20193;-83
2023/10/27 04:28:49;;;;;;;25.30;5.30;;;6.70;99.90;;;;;;5118924;28;20201;-84
2023/10/27 04:31:16;;;;;;;17.77;5.33;;;6.70;99.90;;;;;;5118588;27;20299;-84
2023/10/27 04:33:47;;;;;;;17.03;5.40;;;6.70;99.90;;;;;;5117855;28;20209;-84
2023/10/27 04:36:21;;;;;;;39.10;6.10;;;6.70;99.90;;;;;;5120148;28;20315;-84
2023/10/27 04:41:39;;;;;;;24.83;6.23;;;6.70;99.90;;;;;;5119939;28;20231;-84
2023/10/27 04:44:08;;;;;;;15.93;5.80;;;6.70;99.90;;;;;;5119317;28;20227;-85
2023/10/27 04:46:35;;;;;;;32.60;6.70;;;6.70;99.90;;;;;;5119583;28;20200;-84
2023/10/27 04:49:07;;;;;;;16.57;5.73;;;6.60;99.90;;;;;;5119336;28;20189;-85
2023/10/27 04:52:09;;;;;;;12.27;6.30;;;6.40;99.90;;;;;;5118982;28;20236;-84
2023/10/27 04:54:39;;;;;;;18.23;5.97;;;6.50;99.90;;;;;;5119331;28;20216;-84
2023/10/27 04:57:07;;;;;;;31.93;6.17;;;6.70;99.90;;;;;;5120770;28;20636;-84
2023/10/27 05:00:19;;;;;;;13.73;5.67;;;6.80;99.90;;;;;;5118429;28;20245;-84
2023/10/27 05:02:54;;;;;;;20.50;5.33;;;6.70;99.90;;;;;;5112929;28;20246;-84
2023/10/27 05:05:35;;;;;;;;;;;;;;;;;;;;;
2023/10/27 05:08:02;;;;;;;9.63;5.60;;;6.70;99.90;;;;;;5120256;28;20272;-83
2023/10/27 05:10:29;;;;;;;29.60;12.80;;;6.70;99.90;;;;;;5119921;28;20670;-84
2023/10/27 05:12:56;;;;;;;24.27;5.33;;;6.60;99.90;;;;;;5119433;27;20208;-85
2023/10/27 05:15:23;;;;;;;12.93;5.13;;;6.40;99.90;;;;;;5119204;28;20201;-83
2023/10/27 05:17:53;;;;;;;17.73;5.27;;;6.40;99.90;;;;;;5118355;27;20220;-84
2023/10/27 05:20:28;;;;;;;12.60;5.17;;;6.50;99.90;;;;;;5119049;28;20221;-83
2023/10/27 05:23:05;;;;;;;7.50;4.73;;;6.40;99.90;;;;;;5117578;28;20249;-83
2023/10/27 05:25:34;;;;;;;6.20;4.40;;;6.50;99.90;;;;;;5119143;27;20195;-84
2023/10/27 05:28:10;;;;;;;8.73;5.27;;;6.60;99.90;;;;;;5120367;28;20273;-84
2023/10/27 05:30:37;;;;;;;11.23;4.67;;;6.50;99.90;;;;;;5110464;28;20213;-85
2023/10/27 05:33:04;;;;;;;8.57;5.00;;;6.50;99.90;;;;;;5097456;28;20212;-85
2023/10/27 05:35:33;;;;;;;8.90;5.10;;;6.50;99.90;;;;;;5097511;28;20201;-84
2023/10/27 05:38:00;;;;;;;8.77;5.03;;;6.60;99.90;;;;;;5097171;28;20198;-84
2023/10/27 05:40:31;;;;;;;14.10;5.40;;;6.70;99.90;;;;;;5096512;28;20243;-84
2023/10/27 05:43:11;;;;;;;10.70;5.30;;;6.60;99.90;;;;;;5098788;28;20671;-85
2023/10/27 05:45:38;;;;;;;9.33;5.60;;;6.50;99.90;;;;;;5098886;28;20227;-85
2023/10/27 05:48:06;;;;;;;9.37;4.97;;;6.50;99.90;;;;;;5114641;28;20244;-85
2023/10/27 05:53:44;;;;;;;14.60;5.53;;;6.50;99.90;;;;;;5084272;28;20620;-84
2023/10/27 05:56:11;;;;;;;11.97;5.80;;;6.50;99.90;;;;;;5116023;28;20196;-85
2023/10/27 05:58:48;;;;;;;;;;;;;;;;;;;;;
2023/10/27 06:01:48;;;;;;;13.43;5.80;;;6.50;99.90;;;;;;5107324;28;20250;-84
2023/10/27 06:04:34;;;;;;;9.00;5.90;;;6.40;99.90;;;;;;5117176;27;20212;-83
2023/10/27 06:07:32;;;;;;;12.70;6.40;;;6.50;99.90;;;;;;5117323;27;20557;-83
2023/10/27 06:10:25;;;;;;;7.73;5.00;;;6.50;99.90;;;;;;5118212;27;20231;-84
2023/10/27 06:13:11;;;;;;;10.80;6.60;;;6.50;99.90;;;;;;5117628;27;20207;-84
2023/10/27 06:16:34;;;;;;;;;;;;;;;;;;;;;
2023/10/27 06:19:19;;;;;;;10.03;6.10;;;6.70;99.90;;;;;;5116983;28;20288;-84
2023/10/27 06:22:06;;;;;;;8.57;5.47;;;6.70;99.90;;;;;;5096721;28;20237;-84
2023/10/27 06:24:54;;;;;;;8.57;5.10;;;6.60;99.90;;;;;;5096413;28;20232;-85
2023/10/27 06:27:39;;;;;;;7.67;5.23;;;6.60;99.90;;;;;;5098338;28;20209;-84
2023/10/27 06:30:09;;;;;;;8.33;5.47;;;6.60;99.90;;;;;;5117110;28;20208;-84
2023/10/27 06:32:53;;;;;;;8.23;5.30;;;6.70;99.90;;;;;;5117663;27;20227;-84
2023/10/27 06:35:42;;;;;;;7.87;4.90;;;6.70;99.90;;;;;;5118350;27;20283;-84
2023/10/27 06:39:02;;;;;;;8.70;5.90;;;6.80;99.90;;;;;;5118239;28;20295;-85
2023/10/27 06:41:42;;;;;;;10.83;6.00;;;6.80;99.90;;;;;;5109797;27;20237;-84
2023/10/27 06:44:42;;;;;;;9.23;6.30;;;7.10;99.90;;;;;;5118020;27;20208;-85
2023/10/27 06:47:09;;;;;;;11.57;7.07;;;6.80;99.90;;;;;;5113715;27;20317;-85
2023/10/27 06:49:35;;;;;;;10.93;6.70;;;6.80;99.90;;;;;;5117429;28;20208;-84
2023/10/27 06:52:04;;;;;;;11.97;6.90;;;6.90;99.90;;;;;;5117770;27;20233;-86
2023/10/27 06:54:44;;;;;;;;;;;;;;;;;;;;;
2023/10/27 07:00:51;;;;;;;12.47;7.80;;;7.00;99.90;;;;;;5074421;28;20226;-84
2023/10/27 07:03:50;;;;;;;13.37;7.53;;;7.20;99.90;;;;;;5075728;28;20348;-85
2023/10/27 07:06:26;;;;;;;15.43;8.17;;;7.00;99.90;;;;;;5118641;28;20647;-85
2023/10/27 07:08:53;;;;;;;12.77;7.10;;;7.00;99.90;;;;;;5112027;28;20638;-84
2023/10/27 07:11:20;;;;;;;12.43;6.73;;;7.10;99.90;;;;;;5115472;28;20227;-85
2023/10/27 07:13:46;;;;;;;11.40;6.23;;;6.90;99.90;;;;;;5116486;28;20208;-84
2023/10/27 07:16:16;;;;;;;10.17;5.97;;;7.00;99.90;;;;;;5119753;28;20197;-84
2023/10/27 07:18:43;;;;;;;11.50;6.83;;;6.90;99.90;;;;;;5107915;28;20224;-83
2023/10/27 07:21:12;;;;;;;14.87;7.57;;;7.00;99.90;;;;;;5116123;27;20595;-83
2023/10/27 07:23:38;;;;;;;12.03;7.07;;;6.90;99.90;;;;;;5116391;28;20240;-84
2023/10/27 07:26:12;;;;;;;11.93;6.73;;;6.90;99.90;;;;;;5117997;28;20205;-83
2023/10/27 07:28:40;;;;;;;12.77;6.93;;;7.00;99.90;;;;;;5117910;28;20711;-81
2023/10/27 07:31:08;;;;;;;14.00;6.73;;;7.00;99.90;;;;;;5117973;28;20221;-83
2023/10/27 07:33:38;;;;;;;10.80;6.87;;;7.10;99.90;;;;;;5118187;28;20200;-83
2023/10/27 07:36:06;;;;;;;10.93;6.20;;;7.10;99.90;;;;;;5117989;28;20190;-81
2023/10/27 07:38:34;;;;;;;10.33;6.47;;;7.00;99.90;;;;;;5117746;28;20280;-84
2023/10/27 07:41:01;;;;;;;10.70;6.43;;;7.10;99.90;;;;;;5117206;28;20289;-84
2023/10/27 07:43:28;;;;;;;12.10;6.80;;;7.20;99.90;;;;;;5118329;28;20227;-85
2023/10/27 07:45:55;;;;;;;13.47;6.83;;;7.10;99.90;;;;;;5119792;28;20208;-83
2023/10/27 07:48:22;;;;;;;10.27;6.30;;;7.10;99.90;;;;;;5119832;28;20192;-83
2023/10/27 07:50:50;;;;;;;10.07;6.13;;;7.20;99.90;;;;;;5118858;28;20229;-84
2023/10/27 07:53:17;;;;;;;10.77;6.77;;;7.20;99.90;;;;;;5119334;28;20197;-84
2023/10/27 07:55:44;;;;;;;10.47;6.50;;;7.20;99.90;;;;;;5118768;28;20720;-83
2023/10/27 07:58:12;;;;;;;10.93;6.93;;;7.30;99.90;;;;;;5119752;28;20207;-85
2023/10/27 08:00:38;;;;;;;10.93;6.40;;;7.30;99.90;;;;;;5119750;28;20231;-83
2023/10/27 08:03:05;;;;;;;11.47;6.33;;;7.30;99.90;;;;;;5119568;28;20227;-85
2023/10/27 08:05:32;;;;;;;16.40;7.07;;;7.30;99.90;;;;;;5113050;27;20214;-85
2023/10/27 08:08:03;;;;;;;14.63;7.33;;;7.40;99.90;;;;;;5100017;28;20212;-82
2023/10/27 08:10:30;;;;;;;16.13;8.33;;;7.50;99.90;;;;;;5108068;28;20557;-84
2023/10/27 08:13:53;;;;;;;;;;;;;;;;;;;;;
2023/10/27 08:51:27;;;;;;;17.87;9.37;;;8.20;99.90;;;;;;2789588;22;20500;-82
2023/10/27 08:53:54;;;;;;;17.03;9.17;;;8.20;99.90;;;;;;5076940;28;20225;-83
2023/10/27 08:56:21;;;;;;;21.63;10.80;;;8.20;99.90;;;;;;5074980;28;20209;-82
2023/10/27 08:58:50;;;;;;;19.33;10.00;;;8.40;99.90;;;;;;5076225;28;20580;-83
2023/10/27 09:01:17;;;;;;;19.33;10.07;;;8.30;99.90;;;;;;5076664;28;20641;-85
2023/10/27 09:04:07;;;;;;;18.77;10.07;;;8.30;99.90;;;;;;5081087;28;20198;-84
2023/10/27 09:06:36;;;;;;;23.83;12.43;;;8.40;99.90;;;;;;5074934;28;20199;-85
2023/10/27 09:09:05;;;;;;;23.53;11.90;;;8.40;99.90;;;;;;5078776;28;20202;-82
2023/10/27 09:11:40;;;;;;;22.23;12.00;;;8.50;99.90;;;;;;5076651;28;20268;-84
2023/10/27 09:14:18;;;;;;;20.03;11.27;;;8.50;99.90;;;;;;5075600;28;20213;-84
2023/10/27 09:16:45;;;;;;;23.60;12.50;;;8.50;99.90;;;;;;5079068;28;20676;-86
2023/10/27 09:19:19;;;;;;;24.33;13.53;;;8.60;99.90;;;;;;5081510;28;20225;-82
2023/10/27 09:21:47;;;;;;;22.30;12.47;;;8.60;99.90;;;;;;5076393;28;20221;-84
2023/10/27 09:24:22;;;;;;;22.30;12.20;;;8.70;99.90;;;;;;5080188;28;20284;-84
2023/10/27 09:26:49;;;;;;;24.03;12.13;;;8.70;99.90;;;;;;5079027;28;20197;-84
2023/10/27 09:29:16;;;;;;;23.10;12.80;;;8.70;99.90;;;;;;5082498;28;20228;-84
2023/10/27 09:31:44;;;;;;;24.53;13.23;;;8.80;99.90;;;;;;5078400;28;20272;-85
2023/10/27 09:34:19;;;;;;;23.33;13.27;;;8.90;99.90;;;;;;5085783;28;20637;-83
2023/10/27 09:36:49;;;;;;;24.37;13.77;;;8.90;99.90;;;;;;5077071;28;20787;-84
2023/10/27 09:39:18;;;;;;;24.70;13.40;;;9.00;99.90;;;;;;5077512;28;20206;-83
2023/10/27 09:41:56;;;;;;;23.00;13.13;;;9.00;99.90;;;;;;5080212;28;20692;-84
2023/10/27 09:44:30;;;;;;;25.67;13.63;;;9.10;99.90;;;;;;5070519;28;20228;-84
2023/10/27 09:47:00;;;;;;;25.57;14.30;;;9.20;99.90;;;;;;5077110;28;20205;-84
2023/10/27 09:49:34;;;;;;;23.33;12.70;;;9.20;99.90;;;;;;5077024;28;20252;-84
2023/10/27 09:52:07;;;;;;;21.43;12.63;;;9.20;99.90;;;;;;5075604;28;20685;-84
2023/10/27 09:54:34;;;;;;;22.47;11.50;;;9.30;99.90;;;;;;5080765;28;20568;-83
2023/10/27 09:57:01;;;;;;;21.80;12.07;;;9.30;99.90;;;;;;5080305;28;20202;-84
2023/10/27 09:59:32;;;;;;;21.87;12.43;;;9.40;99.90;;;;;;5076717;28;20627;-86
2023/10/27 10:02:02;;;;;;;21.97;11.67;;;9.50;99.90;;;;;;5077682;28;20229;-84
2023/10/27 10:04:56;;;;;;;23.93;12.03;;;9.50;99.90;;;;;;5075672;28;20252;-84
2023/10/27 10:07:35;;;;;;;18.87;10.90;;;9.50;99.90;;;;;;5069847;28;20213;-83
2023/10/27 10:10:26;;;;;;;21.27;10.90;;;9.50;99.90;;;;;;5074995;28;20721;-84
2023/10/27 10:13:24;;;;;;;21.70;12.23;;;9.60;99.90;;;;;;5074623;28;20289;-86
2023/10/27 10:15:59;;;;;;;21.63;10.60;;;9.60;99.90;;;;;;5074844;28;20229;-85
2023/10/27 10:18:51;;;;;;;18.70;11.00;;;9.70;99.90;;;;;;5074187;28;20637;-84
2023/10/27 10:21:33;;;;;;;20.10;10.57;;;9.70;99.90;;;;;;5079393;28;20225;-86
2023/10/27 10:24:22;;;;;;;18.33;10.03;;;9.70;99.90;;;;;;5073670;28;20316;-84
2023/10/27 10:27:13;;;;;;;21.77;11.80;;;9.60;99.90;;;;;;5076086;28;20653;-84
2023/10/27 10:29:40;;;;;;;24.23;14.03;;;9.70;99.90;;;;;;5079551;28;20236;-85
2023/10/27 10:32:29;;;;;;;22.93;12.30;;;9.80;99.90;;;;;;5078337;28;20229;-85
2023/10/27 10:35:21;;;;;;;22.07;13.63;;;9.80;99.90;;;;;;5075720;28;20212;-86
2023/10/27 10:37:49;;;;;;;20.90;12.10;;;9.80;99.90;;;;;;5077283;28;20224;-85
2023/10/27 10:40:23;;;;;;;24.60;14.13;;;9.80;99.90;;;;;;5079511;28;20210;-85
2023/10/27 10:43:20;;;;;;;21.83;10.90;;;9.80;99.90;;;;;;5078683;28;20234;-85
2023/10/27 10:45:50;;;;;;;21.00;12.30;;;9.80;99.90;;;;;;5074078;28;20214;-83
2023/10/27 10:48:17;;;;;;;21.33;11.33;;;9.90;99.90;;;;;;5075500;28;20240;-85
2023/10/27 10:50:45;;;;;;;20.33;10.90;;;9.80;99.90;;;;;;5077280;28;20736;-85
2023/10/27 10:53:19;;;;;;;23.97;14.57;;;9.80;99.90;;;;;;5078158;28;20209;-85
2023/10/27 10:55:50;;;;;;;22.37;12.90;;;9.90;99.90;;;;;;5083947;28;20237;-84
2023/10/27 10:58:24;;;;;;;20.63;11.97;;;9.90;99.90;;;;;;5075839;28;20665;-86
2023/10/27 11:00:51;;;;;;;23.23;13.23;;;9.90;99.90;;;;;;5075346;28;20233;-85
2023/10/27 11:03:21;;;;;;;20.50;11.57;;;10.00;99.90;;;;;;5081010;28;20304;-85
2023/10/27 11:05:48;;;;;;;23.13;11.77;;;10.00;99.90;;;;;;5077183;28;20217;-83
2023/10/27 11:08:23;;;;;;;32.40;17.97;;;10.00;99.90;;;;;;5075350;28;20226;-84
2023/10/27 11:10:59;;;;;;;28.93;15.57;;;10.00;99.90;;;;;;5073563;28;20225;-84
2023/10/27 11:13:26;;;;;;;22.60;12.27;;;10.10;99.90;;;;;;5069538;28;20228;-84
2023/10/27 11:15:53;;;;;;;26.73;13.27;;;10.00;99.90;;;;;;5074269;28;20264;-84
2023/10/27 11:18:20;;;;;;;35.17;16.97;;;10.10;99.90;;;;;;5082992;28;20256;-82
2023/10/27 11:20:49;;;;;;;26.03;12.90;;;10.10;99.90;;;;;;5083367;28;20237;-82
2023/10/27 11:23:17;;;;;;;29.70;14.37;;;10.10;99.90;;;;;;5077532;28;20280;-83
2023/10/27 11:25:45;;;;;;;34.80;15.37;;;10.10;99.90;;;;;;5077565;28;20240;-83
2023/10/27 11:28:23;;;;;;;31.83;15.87;;;10.20;99.90;;;;;;5079778;28;20210;-83
2023/10/27 11:31:01;;;;;;;29.77;15.70;;;10.20;99.90;;;;;;5082068;28;20238;-83
2023/10/27 11:33:28;;;;;;;29.30;17.17;;;10.20;99.90;;;;;;5069133;28;20194;-84
2023/10/27 11:35:56;;;;;;;21.37;12.47;;;10.20;99.90;;;;;;5084209;28;20202;-81
2023/10/27 11:38:24;;;;;;;22.97;13.23;;;10.20;99.90;;;;;;5082253;28;20199;-82
2023/10/27 11:40:51;;;;;;;19.23;10.47;;;10.20;99.90;;;;;;5083115;28;20253;-83
2023/10/27 11:43:19;;;;;;;15.53;9.73;;;10.20;99.90;;;;;;5079332;28;20229;-83
2023/10/27 11:45:46;;;;;;;16.70;9.53;;;10.20;99.90;;;;;;5076834;28;20214;-84
2023/10/27 11:48:14;;;;;;;15.37;8.83;;;10.20;99.90;;;;;;5077463;28;20205;-82
2023/10/27 11:50:40;;;;;;;18.10;9.73;;;10.10;99.90;;;;;;5076234;28;20226;-84
2023/10/27 11:53:07;;;;;;;16.80;9.50;;;10.10;99.90;;;;;;5076261;28;20206;-83
2023/10/27 11:55:34;;;;;;;18.13;9.90;;;10.10;99.90;;;;;;5078705;28;20615;-84
2023/10/27 11:58:01;;;;;;;15.63;9.50;;;10.10;99.90;;;;;;5078640;28;20212;-82
2023/10/27 12:00:29;;;;;;;20.63;10.63;;;10.10;99.90;;;;;;5078069;28;20198;-81
2023/10/27 12:02:58;;;;;;;25.27;16.97;;;10.20;99.90;;;;;;5078961;28;20317;-82
2023/10/27 12:05:25;;;;;;;20.53;12.90;;;10.10;99.90;;;;;;5077802;28;20290;-84
2023/10/27 12:07:52;;;;;;;18.13;10.73;;;10.10;99.90;;;;;;5080079;28;20230;-82
2023/10/27 12:10:19;;;;;;;17.53;10.00;;;10.10;99.90;;;;;;5076297;28;20569;-82
2023/10/27 12:12:47;;;;;;;17.83;10.87;;;10.20;99.90;;;;;;5080982;28;20480;-84
2023/10/27 12:15:14;;;;;;;18.20;11.03;;;10.20;99.90;;;;;;5078162;28;20233;-84
2023/10/27 12:17:43;;;;;;;19.13;11.10;;;10.20;99.90;;;;;;5078183;28;20252;-83
2023/10/27 12:20:12;;;;;;;15.87;9.73;;;10.30;99.90;;;;;;5077520;28;20202;-82
2023/10/27 12:22:44;;;;;;;17.77;10.63;;;10.30;99.90;;;;;;5077286;28;20268;-83
2023/10/27 12:25:11;;;;;;;18.50;10.67;;;10.10;99.90;;;;;;5079434;28;20198;-82
2023/10/27 12:27:38;;;;;;;19.00;10.77;;;10.20;99.90;;;;;;5077707;28;20206;-83
2023/10/27 12:30:05;;;;;;;19.27;11.13;;;10.30;99.90;;;;;;5078596;28;22868;-83
2023/10/27 12:32:33;;;;;;;17.60;9.80;;;10.30;99.90;;;;;;5077174;28;20222;-84
2023/10/27 12:35:01;;;;;;;17.40;9.70;;;10.30;99.90;;;;;;5080034;28;20209;-83
2023/10/27 12:37:30;;;;;;;16.80;10.23;;;10.20;99.90;;;;;;5078275;28;20581;-82
2023/10/27 12:39:57;;;;;;;18.20;10.67;;;10.20;99.90;;;;;;5077553;28;20575;-82
2023/10/27 12:42:24;;;;;;;16.97;10.47;;;10.30;99.90;;;;;;5076101;28;20226;-84
2023/10/27 12:44:51;;;;;;;17.83;9.93;;;10.30;99.90;;;;;;5082518;28;20215;-84
2023/10/27 12:47:18;;;;;;;17.67;10.93;;;10.30;99.90;;;;;;5076430;28;20569;-83
2023/10/27 12:49:46;;;;;;;18.40;10.67;;;10.40;99.90;;;;;;5082979;28;20208;-83
2023/10/27 12:52:14;;;;;;;17.77;10.57;;;10.40;99.90;;;;;;5079453;28;20233;-83
2023/10/27 12:54:41;;;;;;;18.83;10.73;;;10.40;99.90;;;;;;5076453;28;20206;-84
2023/10/27 12:57:08;;;;;;;17.97;10.23;;;10.40;99.90;;;;;;5076248;28;20210;-82
2023/10/27 12:59:35;;;;;;;16.93;10.57;;;10.40;99.90;;;;;;5076663;28;20228;-83
2023/10/27 13:02:02;;;;;;;17.00;10.80;;;10.50;99.90;;;;;;5075525;28;20225;-81
2023/10/27 13:04:29;;;;;;;18.33;10.57;;;10.50;99.90;;;;;;5076814;28;20587;-83
2023/10/27 13:06:57;;;;;;;17.50;10.03;;;10.50;99.90;;;;;;5076209;28;20297;-81
2023/10/27 13:09:25;;;;;;;18.03;10.97;;;10.40;99.90;;;;;;5082777;28;20210;-83
2023/10/27 13:11:54;;;;;;;17.23;10.80;;;10.40;99.90;;;;;;5078847;28;20237;-83
2023/10/27 13:14:21;;;;;;;18.40;10.77;;;10.40;99.90;;;;;;5078080;28;20210;-81
2023/10/27 13:16:49;;;;;;;18.97;11.00;;;10.40;99.90;;;;;;5078523;28;20210;-83
2023/10/27 13:19:16;;;;;;;18.47;11.20;;;10.40;99.90;;;;;;5081202;28;20244;-83
2023/10/27 13:21:44;;;;;;;17.90;11.00;;;10.40;99.90;;;;;;5078887;28;20234;-82
2023/10/27 13:24:12;;;;;;;19.03;10.47;;;10.40;99.90;;;;;;5083348;28;20276;-82
2023/10/27 13:26:40;;;;;;;16.07;10.20;;;10.40;99.90;;;;;;5075681;28;20203;-83
2023/10/27 13:29:08;;;;;;;18.43;11.03;;;10.40;99.90;;;;;;5078718;28;20580;-82
2023/10/27 13:31:35;;;;;;;17.43;10.27;;;10.30;99.90;;;;;;5074999;28;20599;-84
2023/10/27 13:34:02;;;;;;;19.37;11.07;;;10.30;99.90;;;;;;5079301;28;20576;-83
2023/10/27 13:36:29;;;;;;;17.40;10.53;;;10.30;99.90;;;;;;5076492;28;20731;-82
2023/10/27 13:38:56;;;;;;;16.07;10.30;;;10.30;99.90;;;;;;5080897;28;20205;-81
2023/10/27 13:41:23;;;;;;;19.17;10.40;;;10.30;99.90;;;;;;5074760;28;20249;-82
2023/10/27 13:43:51;;;;;;;16.97;10.07;;;10.30;99.90;;;;;;5075554;28;20225;-83
2023/10/27 13:46:18;;;;;;;16.90;10.30;;;10.30;99.90;;;;;;5075364;28;20212;-81
2023/10/27 13:48:45;;;;;;;16.20;9.37;;;10.40;99.90;;;;;;5087431;28;20209;-84
2023/10/27 13:51:14;;;;;;;17.97;10.53;;;10.50;99.90;;;;;;5074944;28;20226;-82